Aggersund, Denmark

11:10 PM CEST on July 01, 2015 (GMT +0200)
Halvrimmen | | Change Station
CLOSE
Current Station
Personal Weather Station
Location: Brovst, JYLLAND
Elevation: 13 ft
Nearby Weather Stations

Elev 13 ft 57.12 °N, 9.59 °E | Updated 49 seconds ago

Clear
Clear
59.9 °F
Feels Like 59.9 °F
N
0.0
Wind Variable Wind from SW
Gusts 0.0 mph

Today
High -- | Low -- °F
--% Chance of Precip.
Yesterday
High -- | Low -- °F
Precip. -- in
4:33 AM 10:19 PM
Full, 100% visible
Pressure 30.27 in
Visibility -9999.0 miles
Clouds
Dew Point 55 °F
Humidity 83%
Rainfall 0.00 in
Snow Depth Not available.
UV 0.0 out of 12
Pollen Not available.
Air Quality Not available.
Flu Activity Not available.
METAR EKYT 012050Z 10007KT CAVOK 16/12 Q1025 RMK SKC

More Conditions Fewer Conditions

Pressure 30.27 in
Visibility -9999.0 miles
Clouds
Dew Point 55 °F
Humidity 83%
Rainfall 0.00 in
Snow Depth Not available.
UV 0.0 out of 12
Pollen Not available.
Air Quality Not available.
Flu Activity Not available.
METAR EKYT 012050Z 10007KT CAVOK 16/12 Q1025 RMK SKC

More Conditions Fewer Conditions

10-Day Weather Forecast

×

Almanac

Astronomy

Jul. 01, 2015 Rise Set
Actual Time
Civil Twilight
Nautical Twilight
Astronomical Twilight
Moon
Length of Visible Light
Length of Day
Tomorrow will be .
, % of the Moon is Illuminated

Today's Extremes

Country Highs Country Lows

Community

WunderPhotos

Upload Photos

1,834,286 photos uploaded!

WunderBlogs® & News

Nearby

Air Quality

  Air Quality AQ Index Pollutant
Not available.

Snow Depth

Station Depth Elevation

Earthquake Activity

City Distance Mag. Time & Date
Minimum magnitude displayed is 2.5.

Coastal Water Temperatures

Place Temperature

Stations

Nearby Weather Stations

Station Location Temp. Windchill Dew Point Humidity Wind Precip. Elev Updated Type